createdAt,value
2022-09-29T00:00:45.334Z,9.83
2022-09-29T00:03:12.498Z,8.43
2022-09-29T00:05:39.446Z,8.10
2022-09-29T00:08:06.326Z,8.80
2022-09-29T00:10:33.254Z,7.93
2022-09-29T00:13:00.128Z,8.27
2022-09-29T00:15:27.060Z,8.43
2022-09-29T00:20:41.097Z,8.70
2022-09-29T00:23:08.009Z,8.33
2022-09-29T00:25:35.103Z,8.33
2022-09-29T00:28:02.243Z,9.10
2022-09-29T00:30:29.218Z,8.30
2022-09-29T00:32:56.179Z,10.17
2022-09-29T00:35:23.213Z,9.57
2022-09-29T00:37:50.094Z,10.90
2022-09-29T00:40:17.151Z,10.53
2022-09-29T00:42:44.117Z,11.27
2022-09-29T00:45:20.979Z,10.57
2022-09-29T00:48:00.614Z,10.83
2022-09-29T00:50:46.858Z,10.67
2022-09-29T00:53:20.579Z,11.13
2022-09-29T00:56:03.299Z,10.60
2022-09-29T00:58:54.681Z,10.63
2022-09-29T01:01:28.580Z,10.40
2022-09-29T01:04:02.605Z,10.30
2022-09-29T01:06:39.185Z,10.13
2022-09-29T01:09:10.340Z,10.53
2022-09-29T01:11:37.605Z,10.57
2022-09-29T01:14:08.341Z,11.20
2022-09-29T01:16:37.527Z,10.27
2022-09-29T01:19:13.804Z,10.60
2022-09-29T01:22:05.320Z,10.50
2022-09-29T01:25:06.100Z,10.17
2022-09-29T01:27:58.075Z,9.77
2022-09-29T01:30:43.765Z,9.53
2022-09-29T01:33:35.409Z,9.63
2022-09-29T01:36:12.801Z,9.00
2022-09-29T01:38:57.203Z,9.67
2022-09-29T01:41:39.278Z,8.57
2022-09-29T01:44:23.257Z,9.03
2022-09-29T01:46:59.130Z,9.27
2022-09-29T01:49:31.354Z,9.57
2022-09-29T01:52:13.385Z,9.97
2022-09-29T01:55:12.013Z,9.53
2022-09-29T01:57:59.034Z,10.07
2022-09-29T02:00:34.778Z,8.97
2022-09-29T02:03:18.368Z,9.63
2022-09-29T02:05:56.075Z,9.67
2022-09-29T02:08:40.554Z,9.10
2022-09-29T02:11:10.249Z,9.70
2022-09-29T02:13:43.228Z,9.57
2022-09-29T02:16:14.250Z,9.30
2022-09-29T02:18:49.248Z,8.73
2022-09-29T02:21:16.222Z,9.27
2022-09-29T02:23:43.180Z,10.30
2022-09-29T02:26:12.145Z,8.80
2022-09-29T02:28:39.386Z,8.57
2022-09-29T02:31:07.702Z,8.87
2022-09-29T02:33:34.697Z,9.23
2022-09-29T02:36:04.370Z,9.03
2022-09-29T02:38:47.397Z,7.97
2022-09-29T02:41:43.814Z,8.13
2022-09-29T02:44:31.137Z,8.17
2022-09-29T02:47:09.802Z,9.20
2022-09-29T02:49:48.733Z,7.80
2022-09-29T02:52:16.207Z,9.30
2022-09-29T02:55:17.453Z,10.03
2022-09-29T02:57:50.139Z,9.23
2022-09-29T03:00:19.231Z,9.30
2022-09-29T03:02:46.708Z,9.20
2022-09-29T03:05:17.217Z,8.87
2022-09-29T03:07:44.263Z,9.73
2022-09-29T03:10:12.808Z,9.20
2022-09-29T03:12:39.986Z,8.80
2022-09-29T03:15:07.984Z,8.97
2022-09-29T03:17:35.360Z,9.43
2022-09-29T03:20:02.566Z,9.27
2022-09-29T03:22:29.682Z,9.27
2022-09-29T03:24:57.944Z,9.80
2022-09-29T03:27:24.873Z,9.87
2022-09-29T03:29:51.877Z,11.07
2022-09-29T03:32:18.761Z,10.47
2022-09-29T03:34:45.682Z,8.70
2022-09-29T03:37:12.584Z,8.40
2022-09-29T03:39:39.559Z,10.07
2022-09-29T03:42:06.525Z,10.17
2022-09-29T03:44:33.412Z,9.97
2022-09-29T03:47:00.830Z,8.60
2022-09-29T03:49:27.758Z,8.87
2022-09-29T03:51:54.734Z,9.37
2022-09-29T03:54:21.652Z,9.23
2022-09-29T03:56:48.595Z,9.93
2022-09-29T03:59:15.817Z,9.57
2022-09-29T04:01:42.830Z,9.40
2022-09-29T04:04:10.755Z,7.47
2022-09-29T04:06:37.621Z,18.50
2022-09-29T04:09:04.527Z,11.33
2022-09-29T04:11:31.481Z,9.03
2022-09-29T04:13:58.363Z,7.70
2022-09-29T04:16:25.339Z,6.17
2022-09-29T04:18:52.339Z,5.17
2022-09-29T04:21:19.374Z,5.20
2022-09-29T04:23:47.504Z,11.40
2022-09-29T04:26:14.415Z,10.97
2022-09-29T04:28:43.594Z,11.70
2022-09-29T04:31:10.540Z,5.57
2022-09-29T04:33:39.171Z,10.30
2022-09-29T04:36:06.675Z,6.70
2022-09-29T04:38:33.732Z,6.20
2022-09-29T04:41:00.885Z,5.70
2022-09-29T04:43:27.801Z,9.60
2022-09-29T04:46:02.184Z,7.47
2022-09-29T04:48:32.460Z,7.93
2022-09-29T04:51:02.338Z,8.17
2022-09-29T04:53:29.360Z,7.83
2022-09-29T04:55:56.262Z,7.97
2022-09-29T04:58:23.148Z,8.10
2022-09-29T05:00:50.094Z,6.93
2022-09-29T05:03:17.029Z,22.30
2022-09-29T05:05:44.126Z,11.13
2022-09-29T05:08:11.029Z,7.83
2022-09-29T05:10:37.925Z,7.90
2022-09-29T05:13:05.192Z,8.10
2022-09-29T05:15:32.110Z,8.33
2022-09-29T05:18:02.935Z,8.13
2022-09-29T05:20:38.360Z,8.33
2022-09-29T05:23:10.211Z,8.30
2022-09-29T05:25:38.239Z,8.87
2022-09-29T05:28:05.249Z,8.67
2022-09-29T05:30:32.248Z,8.63
2022-09-29T05:32:59.374Z,9.30
2022-09-29T05:35:26.295Z,9.13
2022-09-29T05:37:53.594Z,8.67
2022-09-29T05:40:24.180Z,9.73
2022-09-29T05:42:51.993Z,15.30
2022-09-29T05:45:19.145Z,12.17
2022-09-29T05:47:46.119Z,13.83
2022-09-29T05:50:13.345Z,14.67
2022-09-29T05:52:41.602Z,16.80
2022-09-29T05:55:09.837Z,16.03
2022-09-29T05:57:37.450Z,14.33
2022-09-29T06:00:05.409Z,16.07
2022-09-29T06:02:38.427Z,16.13
2022-09-29T06:05:06.163Z,15.17
2022-09-29T06:07:33.195Z,11.90
2022-09-29T06:10:00.096Z,11.23
2022-09-29T06:12:27.004Z,10.57
2022-09-29T06:14:53.940Z,11.30
2022-09-29T06:17:20.866Z,10.27
2022-09-29T06:19:47.728Z,8.55
2022-09-29T06:22:14.604Z,8.52
2022-09-29T06:24:41.590Z,8.75
2022-09-29T06:27:08.581Z,8.73
2022-09-29T06:29:35.476Z,7.93
2022-09-29T06:32:03.543Z,6.78
2022-09-29T06:34:30.460Z,6.70
2022-09-29T06:37:16.146Z,5.60
2022-09-29T06:39:43.634Z,5.60
2022-09-29T06:42:10.886Z,6.53
2022-09-29T06:44:37.752Z,5.97
2022-09-29T06:47:05.283Z,10.77
2022-09-29T06:49:32.180Z,5.68
2022-09-29T06:51:59.583Z,5.93
2022-09-29T06:54:27.135Z,5.95
2022-09-29T06:56:55.509Z,11.07
2022-09-29T06:59:22.850Z,9.77
2022-09-29T07:01:51.097Z,14.10
2022-09-29T07:04:20.853Z,12.75
2022-09-29T07:06:48.988Z,8.68
2022-09-29T07:09:16.781Z,12.57
2022-09-29T07:11:46.864Z,8.70
2022-09-29T07:14:14.841Z,7.63
2022-09-29T07:16:42.150Z,6.90
2022-09-29T07:19:09.566Z,6.10
2022-09-29T07:21:36.464Z,6.15
2022-09-29T07:24:03.725Z,6.25
2022-09-29T07:26:38.303Z,15.18
2022-09-29T07:29:05.444Z,5.72
2022-09-29T07:31:44.443Z,5.78
2022-09-29T07:34:12.079Z,8.35
2022-09-29T07:36:39.117Z,5.65
2022-09-29T07:39:06.099Z,6.45
2022-09-29T07:41:33.280Z,5.20
2022-09-29T07:44:00.428Z,6.00
2022-09-29T07:46:27.421Z,5.05
2022-09-29T07:48:54.350Z,4.60
2022-09-29T07:51:21.640Z,5.03
2022-09-29T07:53:48.737Z,5.28
2022-09-29T07:56:21.102Z,4.88
2022-09-29T07:58:49.938Z,5.15
2022-09-29T08:01:18.424Z,6.10
2022-09-29T08:03:54.079Z,5.55
2022-09-29T08:06:22.746Z,4.95
2022-09-29T08:09:00.632Z,6.72
2022-09-29T08:11:32.365Z,5.72
2022-09-29T08:14:00.561Z,8.73
2022-09-29T08:16:27.904Z,9.15
2022-09-29T08:18:54.875Z,10.70
2022-09-29T08:21:21.830Z,7.63
2022-09-29T08:23:48.810Z,9.88
2022-09-29T08:26:32.141Z,7.28
2022-09-29T08:29:08.803Z,9.85
2022-09-29T08:31:38.437Z,9.98
2022-09-29T08:34:06.171Z,10.00
2022-09-29T08:36:33.068Z,7.45
2022-09-29T08:39:00.229Z,11.15
2022-09-29T08:41:45.571Z,10.32
2022-09-29T08:44:39.683Z,6.38
2022-09-29T08:47:13.074Z,8.88
2022-09-29T08:49:44.004Z,10.52
2022-09-29T08:52:21.623Z,8.80
2022-09-29T08:54:53.193Z,19.67
2022-09-29T08:57:20.835Z,5.53
2022-09-29T08:59:54.505Z,15.95
2022-09-29T09:02:56.727Z,5.25
2022-09-29T09:05:58.907Z,6.18
2022-09-29T09:09:01.735Z,6.57
2022-09-29T09:11:47.438Z,15.27
2022-09-29T09:14:38.602Z,9.55
2022-09-29T09:17:42.420Z,5.78
2022-09-29T09:20:27.092Z,4.93
2022-09-29T09:22:59.559Z,4.78
2022-09-29T09:25:32.379Z,6.30
2022-09-29T09:28:42.464Z,4.47
2022-09-29T09:31:20.997Z,10.20
2022-09-29T09:34:06.469Z,20.33
2022-09-29T09:36:38.188Z,8.95
2022-09-29T09:39:09.712Z,7.88
2022-09-29T09:41:38.278Z,12.13
2022-09-29T09:44:19.502Z,6.93
2022-09-29T09:46:55.347Z,6.82
2022-09-29T09:49:31.356Z,8.82
2022-09-29T09:52:04.896Z,7.38
2022-09-29T09:54:39.315Z,5.40
2022-09-29T09:57:33.797Z,5.10
2022-09-29T10:00:21.629Z,4.47
2022-09-29T10:02:56.757Z,4.68
2022-09-29T10:05:29.358Z,4.63
2022-09-29T10:07:56.417Z,4.60
2022-09-29T10:10:26.581Z,4.22
2022-09-29T10:13:09.021Z,4.68
2022-09-29T10:15:44.662Z,4.53
2022-09-29T10:18:14.515Z,5.20
2022-09-29T10:20:42.694Z,4.95
2022-09-29T10:23:33.658Z,3.55
2022-09-29T10:26:03.303Z,6.00
2022-09-29T10:28:46.783Z,7.15
2022-09-29T10:31:32.791Z,3.53
2022-09-29T10:34:23.254Z,4.82
2022-09-29T10:37:05.660Z,2.80
2022-09-29T10:39:44.095Z,4.68
2022-09-29T10:42:22.421Z,5.40
2022-09-29T10:44:52.666Z,3.92
2022-09-29T10:47:21.833Z,3.17
2022-09-29T10:50:07.610Z,3.88
2022-09-29T10:52:34.832Z,2.97
2022-09-29T10:55:05.996Z,3.00
2022-09-29T10:57:38.889Z,3.30
2022-09-29T11:00:06.944Z,5.35
2022-09-29T11:02:40.677Z,5.20
2022-09-29T11:05:20.260Z,3.63
2022-09-29T11:07:48.997Z,2.65
2022-09-29T11:10:36.932Z,3.15
2022-09-29T11:13:24.263Z,3.05
2022-09-29T11:15:51.405Z,3.10
2022-09-29T11:18:33.053Z,2.60
2022-09-29T11:21:20.394Z,2.95
2022-09-29T11:24:02.205Z,2.60
2022-09-29T11:26:50.995Z,2.90
2022-09-29T11:29:54.642Z,3.03
2022-09-29T11:32:49.793Z,2.65
2022-09-29T11:35:40.762Z,2.45
2022-09-29T11:38:29.463Z,2.65
2022-09-29T11:41:15.482Z,3.10
2022-09-29T11:43:58.767Z,2.70
2022-09-29T11:46:42.746Z,2.63
2022-09-29T11:49:28.574Z,2.40
2022-09-29T11:52:08.992Z,2.10
2022-09-29T11:55:00.610Z,2.63
2022-09-29T11:58:12.809Z,2.72
2022-09-29T12:01:02.048Z,2.90
2022-09-29T12:03:37.092Z,3.00
2022-09-29T12:06:33.615Z,2.95
2022-09-29T12:09:15.747Z,2.80
2022-09-29T12:12:21.998Z,3.20
2022-09-29T12:15:18.957Z,2.65
2022-09-29T12:17:52.159Z,2.95
2022-09-29T12:20:29.990Z,2.10
2022-09-29T12:23:05.788Z,2.83
2022-09-29T12:25:36.701Z,3.42
2022-09-29T12:28:17.447Z,3.08
2022-09-29T12:30:54.842Z,3.20
2022-09-29T12:33:34.738Z,3.72
2022-09-29T12:36:27.532Z,2.22
2022-09-29T12:39:03.185Z,2.63
2022-09-29T12:41:38.212Z,3.05
2022-09-29T12:44:22.864Z,2.70
2022-09-29T12:46:58.066Z,2.67
2022-09-29T12:50:11.567Z,2.60
2022-09-29T12:53:06.925Z,2.95
2022-09-29T12:55:53.909Z,2.72
2022-09-29T12:58:33.525Z,2.92
2022-09-29T13:01:28.972Z,3.05
2022-09-29T13:04:23.806Z,3.03
2022-09-29T13:07:19.902Z,3.00
2022-09-29T13:10:17.783Z,3.55
2022-09-29T13:13:02.557Z,3.92
2022-09-29T13:15:45.341Z,3.90
2022-09-29T13:18:41.900Z,4.57
2022-09-29T13:21:31.238Z,4.97
2022-09-29T13:24:23.950Z,5.28
2022-09-29T13:27:09.444Z,5.97
2022-09-29T13:30:05.931Z,7.18
2022-09-29T13:32:34.120Z,5.57
2022-09-29T13:35:02.497Z,4.72
2022-09-29T13:37:45.793Z,4.38
2022-09-29T13:40:26.568Z,5.43
2022-09-29T13:43:05.172Z,5.40
2022-09-29T13:45:34.936Z,4.07
2022-09-29T13:48:16.978Z,4.28
2022-09-29T13:50:49.539Z,4.43
2022-09-29T13:53:19.509Z,4.43
2022-09-29T13:55:50.826Z,3.75
2022-09-29T13:58:25.396Z,4.43
2022-09-29T14:00:53.941Z,4.18
2022-09-29T14:03:25.493Z,3.90
2022-09-29T14:09:19.853Z,3.42
2022-09-29T14:11:52.138Z,3.30
2022-09-29T14:14:30.917Z,3.22
2022-09-29T14:17:09.668Z,2.88
2022-09-29T14:20:11.885Z,3.10
2022-09-29T14:22:38.772Z,4.32
2022-09-29T14:25:08.887Z,4.47
2022-09-29T14:27:38.126Z,3.95
2022-09-29T14:30:13.612Z,2.20
2022-09-29T14:32:49.291Z,2.03
2022-09-29T14:35:16.273Z,2.20
2022-09-29T14:37:44.698Z,2.53
2022-09-29T14:40:29.867Z,2.25
2022-09-29T14:43:17.442Z,4.03
2022-09-29T14:46:41.914Z,3.58
2022-09-29T14:50:03.756Z,4.65
2022-09-29T14:52:50.202Z,4.25
2022-09-29T14:55:54.873Z,3.42
2022-09-29T14:58:40.653Z,4.60
2022-09-29T15:01:28.359Z,5.28
2022-09-29T15:04:10.650Z,7.40
2022-09-29T15:06:47.034Z,7.50
2022-09-29T15:09:21.142Z,7.82
2022-09-29T15:12:02.944Z,7.60
2022-09-29T15:14:39.539Z,3.78
2022-09-29T15:17:20.456Z,9.10
2022-09-29T15:19:55.559Z,4.88
2022-09-29T15:22:52.505Z,7.72
2022-09-29T15:25:31.543Z,4.22
2022-09-29T15:28:03.059Z,2.00
2022-09-29T15:30:31.000Z,2.40
2022-09-29T15:33:16.479Z,8.55
2022-09-29T15:35:46.161Z,6.03
2022-09-29T15:38:13.223Z,7.13
2022-09-29T15:40:40.142Z,9.93
2022-09-29T15:43:25.186Z,4.90
2022-09-29T15:46:05.553Z,8.18
2022-09-29T15:48:32.911Z,13.15
2022-09-29T15:51:01.872Z,11.63
2022-09-29T15:53:29.161Z,8.15
2022-09-29T15:55:56.138Z,4.45
2022-09-29T15:58:48.022Z,3.10
2022-09-29T16:01:19.093Z,2.88
2022-09-29T16:03:57.845Z,4.55
2022-09-29T16:06:35.905Z,5.20
2022-09-29T16:09:24.174Z,7.68
2022-09-29T16:11:51.207Z,9.18
2022-09-29T16:14:31.242Z,4.40
2022-09-29T16:17:05.932Z,7.43
2022-09-29T16:19:45.573Z,8.23
2022-09-29T16:22:20.527Z,7.43
2022-09-29T16:25:07.971Z,6.13
2022-09-29T16:27:58.254Z,8.75
2022-09-29T16:31:06.182Z,8.35
2022-09-29T16:33:36.048Z,8.55
2022-09-29T16:36:17.570Z,5.70
2022-09-29T16:38:48.675Z,5.82
2022-09-29T16:41:34.291Z,4.18
2022-09-29T16:44:09.793Z,5.75
2022-09-29T16:46:48.118Z,7.78
2022-09-29T16:49:18.821Z,3.97
2022-09-29T16:51:47.541Z,3.92
2022-09-29T16:54:29.189Z,3.40
2022-09-29T16:57:18.207Z,4.40
2022-09-29T16:59:46.291Z,9.03
2022-09-29T17:02:14.160Z,9.33
2022-09-29T17:04:41.740Z,31.10
2022-09-29T17:07:15.222Z,16.47
2022-09-29T17:09:51.940Z,3.97
2022-09-29T17:12:19.439Z,3.40
2022-09-29T17:14:55.077Z,5.50
2022-09-29T17:17:30.276Z,5.73
2022-09-29T17:20:02.529Z,8.33
2022-09-29T17:22:36.732Z,7.40
2022-09-29T17:25:10.890Z,8.23
2022-09-29T17:28:10.275Z,5.13
2022-09-29T17:30:47.774Z,8.30
2022-09-29T17:33:16.687Z,7.90
2022-09-29T17:35:47.633Z,5.40
2022-09-29T17:38:32.101Z,7.37
2022-09-29T17:41:06.062Z,4.37
2022-09-29T17:43:33.582Z,5.07
2022-09-29T17:46:03.618Z,3.70
2022-09-29T17:48:33.067Z,7.57
2022-09-29T17:51:04.127Z,4.20
2022-09-29T17:53:31.074Z,4.90
2022-09-29T17:56:02.697Z,5.40
2022-09-29T17:58:29.643Z,8.43
2022-09-29T18:00:57.667Z,4.53
2022-09-29T18:03:24.850Z,5.80
2022-09-29T18:05:56.479Z,4.03
2022-09-29T18:08:28.122Z,4.40
2022-09-29T18:11:00.581Z,4.43
2022-09-29T18:13:31.288Z,4.00
2022-09-29T18:15:59.818Z,5.50
2022-09-29T18:18:27.104Z,6.13
2022-09-29T18:20:54.557Z,4.57
2022-09-29T18:23:24.197Z,5.70
2022-09-29T18:25:52.846Z,8.43
2022-09-29T18:28:26.337Z,21.70
2022-09-29T18:31:32.481Z,12.87
2022-09-29T18:33:59.380Z,9.00
2022-09-29T18:36:26.341Z,8.83
2022-09-29T18:38:53.334Z,9.00
2022-09-29T18:41:21.533Z,7.23
2022-09-29T18:43:49.046Z,6.87
2022-09-29T18:46:17.606Z,13.17
2022-09-29T18:48:45.079Z,15.40
2022-09-29T18:51:13.477Z,19.40
2022-09-29T18:53:42.074Z,17.77
2022-09-29T18:56:17.412Z,15.67
2022-09-29T18:58:45.037Z,16.70
2022-09-29T19:01:18.489Z,16.63
2022-09-29T19:03:45.592Z,17.33
2022-09-29T19:06:16.061Z,18.97
2022-09-29T19:08:44.400Z,15.33
2022-09-29T19:11:20.247Z,11.67
2022-09-29T19:13:47.672Z,13.27
2022-09-29T19:16:15.592Z,13.80
2022-09-29T19:18:42.631Z,13.90
2022-09-29T19:21:12.539Z,13.90
2022-09-29T19:23:42.651Z,13.97
2022-09-29T19:26:16.166Z,14.97
2022-09-29T19:28:43.469Z,14.30
2022-09-29T19:31:14.730Z,13.80
2022-09-29T19:33:42.710Z,14.87
2022-09-29T19:36:14.251Z,13.27
2022-09-29T19:38:41.886Z,14.73
2022-09-29T19:41:18.275Z,14.93
2022-09-29T19:43:46.049Z,18.70
2022-09-29T19:46:14.052Z,15.43
2022-09-29T19:48:43.197Z,14.43
2022-09-29T19:51:33.386Z,12.93
2022-09-29T19:54:11.234Z,15.53
2022-09-29T19:56:53.930Z,14.93
2022-09-29T19:59:29.042Z,13.20
2022-09-29T20:01:56.456Z,13.63
2022-09-29T20:04:29.750Z,12.73
2022-09-29T20:06:57.142Z,12.60
2022-09-29T20:09:24.944Z,11.47
2022-09-29T20:11:52.798Z,12.73
2022-09-29T20:14:23.287Z,17.77
2022-09-29T20:16:52.200Z,13.20
2022-09-29T20:19:21.822Z,11.53
2022-09-29T20:21:51.447Z,11.97
2022-09-29T20:24:20.774Z,11.53
2022-09-29T20:26:48.498Z,10.70
2022-09-29T20:29:18.858Z,10.13
2022-09-29T20:31:48.061Z,9.37
2022-09-29T20:34:18.469Z,9.47
2022-09-29T20:36:48.682Z,10.37
2022-09-29T20:39:19.177Z,9.77
2022-09-29T20:41:46.905Z,8.80
2022-09-29T20:44:13.896Z,13.50
2022-09-29T20:46:41.017Z,15.40
2022-09-29T20:49:09.817Z,15.67
2022-09-29T20:51:38.083Z,11.93
2022-09-29T20:54:05.180Z,8.23
2022-09-29T20:56:35.980Z,7.63
2022-09-29T20:59:03.231Z,8.17
2022-09-29T21:01:31.746Z,8.87
2022-09-29T21:04:04.011Z,8.00
2022-09-29T21:06:33.356Z,7.83
2022-09-29T21:09:01.842Z,7.70
2022-09-29T21:11:29.433Z,7.63
2022-09-29T21:13:59.393Z,8.30
2022-09-29T21:16:26.547Z,8.00
2022-09-29T21:18:54.325Z,9.13
2022-09-29T21:21:21.640Z,12.63
2022-09-29T21:23:50.542Z,21.50
2022-09-29T21:26:19.749Z,29.13
2022-09-29T21:28:50.698Z,19.43
2022-09-29T21:31:20.325Z,13.77
2022-09-29T21:33:54.408Z,9.63
2022-09-29T21:36:23.981Z,8.63
2022-09-29T21:38:52.034Z,8.53
2022-09-29T21:41:26.236Z,8.97
2022-09-29T21:43:56.061Z,8.93
2022-09-29T21:46:25.886Z,8.63
2022-09-29T21:48:58.326Z,8.07
2022-09-29T21:51:27.753Z,8.87
2022-09-29T21:53:57.611Z,7.87
2022-09-29T21:56:28.883Z,8.87
2022-09-29T21:58:56.539Z,9.93
2022-09-29T22:01:24.506Z,11.43
2022-09-29T22:03:52.724Z,10.67
2022-09-29T22:06:22.256Z,9.97
2022-09-29T22:08:50.244Z,8.70
2022-09-29T22:11:20.549Z,11.27
2022-09-29T22:13:51.899Z,8.43
2022-09-29T22:16:21.983Z,9.13
2022-09-29T22:19:00.611Z,8.90
2022-09-29T22:21:36.644Z,8.40
2022-09-29T22:24:03.840Z,9.23
2022-09-29T22:26:31.898Z,9.13
2022-09-29T22:29:03.005Z,8.93
2022-09-29T22:31:31.524Z,9.27
2022-09-29T22:34:01.378Z,12.50
2022-09-29T22:36:31.415Z,11.10
2022-09-29T22:38:58.744Z,9.90
2022-09-29T22:41:25.866Z,11.03
2022-09-29T22:43:59.225Z,12.50
2022-09-29T22:46:28.648Z,11.90
2022-09-29T22:48:55.767Z,11.10
2022-09-29T22:51:22.825Z,10.97
2022-09-29T22:53:50.013Z,11.00
2022-09-29T22:56:23.662Z,11.23
2022-09-29T22:58:50.492Z,10.80
2022-09-29T23:01:19.855Z,13.47
2022-09-29T23:03:48.832Z,15.87
2022-09-29T23:06:15.784Z,11.03
2022-09-29T23:08:42.767Z,11.23
2022-09-29T23:11:19.497Z,11.00
2022-09-29T23:13:47.391Z,10.03
2022-09-29T23:16:15.602Z,9.20
2022-09-29T23:18:45.550Z,10.00
2022-09-29T23:21:17.799Z,10.17
2022-09-29T23:23:45.381Z,9.33
2022-09-29T23:26:12.407Z,9.80
2022-09-29T23:28:39.315Z,10.60
2022-09-29T23:31:09.834Z,9.83
2022-09-29T23:33:37.360Z,9.73
2022-09-29T23:36:10.021Z,9.50
2022-09-29T23:39:00.332Z,9.20
2022-09-29T23:41:27.885Z,9.67
2022-09-29T23:43:55.797Z,10.10
2022-09-29T23:46:24.793Z,8.50
2022-09-29T23:48:51.811Z,9.17
2022-09-29T23:51:19.182Z,8.00
2022-09-29T23:53:46.108Z,9.37
2022-09-29T23:56:13.032Z,9.83
2022-09-29T23:58:39.949Z,14.20
